Airfield :







YOU CAN JOIN US ON...

 
LOGIN :

Register | Disclaimer

   EN    FR    IT 

 









Legend :    VFR   Marginal VFR   IFR   Intensive IFR   Very Intensive IFR
Visi :
Ceiling :
>= 8 km
>= 3000ft
5 to 8 km
1000 to 3000 ft
1500m to 5 km
500 to 1000 ft
800 to 1500m
200 to 500 ft
< 800m
< 200 ft
Symbols :   Thunderstorms  Fog  Heavy snow  Heavy precipitations  Wind > 20 kt






- Airport Elevation : 160 ft
- IATA code : YYG


CYYG - Charlottetown

CURRENT METAR :
  • 080600Z 18015KT 15SM BKN014 BKN230 M06/M08 A3001 RMK SC6CI1 SLP169

EXPIRED METARs :
  • 080527Z 15007KT 15SM BKN012 BKN230 M10/M11 A3001 RMK SC5CI1 PRESFR SLP167
  • 080500Z 15005KT 15SM FEW015 SCT230 M09/M11 A3003 RMK SC2CI1 PRESFR SLP175
  • 080400Z 14006KT 15SM SKC M10/M12 A3007 RMK PRESFR SLP188

TAF TAF CYYG
Valid from the 08 at 06:00 until the 08 at 18:00 UTC


080540Z 0806/0818 16006KT P6SM BKN012 BKN240
TEMPO 0806/0808 SCT015 BKN240
FM080800 18008KT P6SM FEW015 BKN130
FM081100 19012KT P6SM -SN OVC025
TEMPO 0811/0814 3SM -SN OVC015
PROB30 0811/0814 2SM -SN -FZDZ BR OVC008
FM081400 24010G20KT 6SM -SN BR OVC012
TEMPO 0814/0816 2SM -SN BR OVC008
PROB30 0814/0816 3SM -FZDZ BR
FM081600 28010G20KT P6SM BKN015
TEMPO 0816/0818 BKN020 RMK NXT FCST BY 081200Z
CZQM FIR / North America



MET'MAP, your aeronautical weather chart ! - Copyright ORBIFLY December 2007 - Disclaimer

ORBIFLY MET'MAP TEAM :

Programming & Development : Alexandra Zaïnal
Original concept : Baudouin d'Aumeries
Technical & hardware support : Manuel Goepfert
Assistance : Marc-Olivier Méhu




SOURCES & CREDITS :

   NOAA